sensor_id;sensor_type;location;lat;lon;timestamp;pressure;altitude;pressure_sealevel;temperature;humidity
77011;BME280;65945;53.148;17.956;2023-06-22T00:02:19;101316.73;;;18.75;79.78
77011;BME280;65945;53.148;17.956;2023-06-22T00:04:46;101325.17;;;18.73;79.80
77011;BME280;65945;53.148;17.956;2023-06-22T00:07:13;101322.85;;;18.71;80.00
77011;BME280;65945;53.148;17.956;2023-06-22T00:09:39;101330.44;;;18.69;80.08
77011;BME280;65945;53.148;17.956;2023-06-22T00:12:06;101332.15;;;18.68;80.23
77011;BME280;65945;53.148;17.956;2023-06-22T00:14:33;101336.88;;;18.68;80.25
77011;BME280;65945;53.148;17.956;2023-06-22T00:16:59;101335.57;;;18.67;80.33
77011;BME280;65945;53.148;17.956;2023-06-22T00:19:26;101335.02;;;18.66;80.39
77011;BME280;65945;53.148;17.956;2023-06-22T00:21:53;101337.73;;;18.68;80.53
77011;BME280;65945;53.148;17.956;2023-06-22T00:24:20;101338.34;;;18.68;80.56
77011;BME280;65945;53.148;17.956;2023-06-22T00:26:48;101336.70;;;18.69;80.47
77011;BME280;65945;53.148;17.956;2023-06-22T00:29:16;101339.89;;;18.69;80.53
77011;BME280;65945;53.148;17.956;2023-06-22T00:31:43;101343.37;;;18.70;80.72
77011;BME280;65945;53.148;17.956;2023-06-22T00:34:10;101349.34;;;18.70;80.87
77011;BME280;65945;53.148;17.956;2023-06-22T00:36:36;101353.98;;;18.71;80.92
77011;BME280;65945;53.148;17.956;2023-06-22T00:39:03;101353.69;;;18.72;80.85
77011;BME280;65945;53.148;17.956;2023-06-22T00:41:30;101356.08;;;18.72;81.03
77011;BME280;65945;53.148;17.956;2023-06-22T00:43:57;101355.23;;;18.71;81.14
77011;BME280;65945;53.148;17.956;2023-06-22T00:46:24;101354.46;;;18.71;81.17
77011;BME280;65945;53.148;17.956;2023-06-22T00:48:51;101354.23;;;18.70;81.16
77011;BME280;65945;53.148;17.956;2023-06-22T00:51:18;101354.69;;;18.71;81.22
77011;BME280;65945;53.148;17.956;2023-06-22T00:53:51;101352.52;;;18.71;81.27
77011;BME280;65945;53.148;17.956;2023-06-22T00:56:20;101357.39;;;18.71;81.26
77011;BME280;65945;53.148;17.956;2023-06-22T00:58:51;101354.84;;;18.71;81.21
77011;BME280;65945;53.148;17.956;2023-06-22T01:01:19;101354.30;;;18.71;81.29
77011;BME280;65945;53.148;17.956;2023-06-22T01:03:50;101353.98;;;18.71;81.40
77011;BME280;65945;53.148;17.956;2023-06-22T01:06:22;101357.63;;;18.71;81.24
77011;BME280;65945;53.148;17.956;2023-06-22T01:09:06;101358.33;;;18.70;81.41
77011;BME280;65945;53.148;17.956;2023-06-22T01:11:42;101357.63;;;18.68;81.20
77011;BME280;65945;53.148;17.956;2023-06-22T01:14:23;101362.11;;;18.66;81.15
77011;BME280;65945;53.148;17.956;2023-06-22T01:16:53;101364.14;;;18.63;81.09
77011;BME280;65945;53.148;17.956;2023-06-22T01:22:11;101360.56;;;18.56;80.43
77011;BME280;65945;53.148;17.956;2023-06-22T01:24:51;101358.39;;;18.52;80.16
77011;BME280;65945;53.148;17.956;2023-06-22T01:27:33;101361.42;;;18.48;80.00
77011;BME280;65945;53.148;17.956;2023-06-22T01:30:04;101364.44;;;18.43;79.78
77011;BME280;65945;53.148;17.956;2023-06-22T01:32:36;101364.65;;;18.40;79.75
77011;BME280;65945;53.148;17.956;2023-06-22T01:35:06;101362.23;;;18.35;79.63
77011;BME280;65945;53.148;17.956;2023-06-22T01:37:34;101361.14;;;18.31;79.60
77011;BME280;65945;53.148;17.956;2023-06-22T01:40:03;101357.48;;;18.26;79.49
77011;BME280;65945;53.148;17.956;2023-06-22T01:42:32;101362.83;;;18.21;79.55
77011;BME280;65945;53.148;17.956;2023-06-22T01:45:00;101368.77;;;18.15;79.48
77011;BME280;65945;53.148;17.956;2023-06-22T01:47:28;101370.92;;;18.10;79.42
77011;BME280;65945;53.148;17.956;2023-06-22T01:49:56;101373.09;;;18.06;79.40
77011;BME280;65945;53.148;17.956;2023-06-22T01:52:23;101369.58;;;18.01;79.52
77011;BME280;65945;53.148;17.956;2023-06-22T01:54:50;101366.16;;;17.95;79.65
77011;BME280;65945;53.148;17.956;2023-06-22T01:57:16;101364.75;;;17.88;79.63
77011;BME280;65945;53.148;17.956;2023-06-22T01:59:53;101361.80;;;17.83;79.68
77011;BME280;65945;53.148;17.956;2023-06-22T02:02:24;101364.16;;;17.77;79.77
77011;BME280;65945;53.148;17.956;2023-06-22T02:04:59;101363.60;;;17.72;79.86
77011;BME280;65945;53.148;17.956;2023-06-22T02:07:32;101359.86;;;17.67;79.84
77011;BME280;65945;53.148;17.956;2023-06-22T02:10:03;101359.23;;;17.62;80.03
77011;BME280;65945;53.148;17.956;2023-06-22T02:12:33;101362.06;;;17.57;79.92
77011;BME280;65945;53.148;17.956;2023-06-22T02:15:01;101362.27;;;17.52;80.02
77011;BME280;65945;53.148;17.956;2023-06-22T02:17:29;101369.77;;;17.48;80.01
77011;BME280;65945;53.148;17.956;2023-06-22T02:20:04;101373.25;;;17.42;80.03
77011;BME280;65945;53.148;17.956;2023-06-22T02:22:36;101382.34;;;17.37;80.35
77011;BME280;65945;53.148;17.956;2023-06-22T02:25:03;101386.65;;;17.31;80.45
77011;BME280;65945;53.148;17.956;2023-06-22T02:27:29;101388.63;;;17.26;80.52
77011;BME280;65945;53.148;17.956;2023-06-22T02:29:57;101389.45;;;17.23;80.81
77011;BME280;65945;53.148;17.956;2023-06-22T02:32:23;101394.61;;;17.21;80.93
77011;BME280;65945;53.148;17.956;2023-06-22T02:34:50;101394.77;;;17.21;80.89
77011;BME280;65945;53.148;17.956;2023-06-22T02:37:18;101395.06;;;17.19;80.88
77011;BME280;65945;53.148;17.956;2023-06-22T02:39:45;101395.69;;;17.20;80.97
77011;BME280;65945;53.148;17.956;2023-06-22T02:42:11;101394.21;;;17.20;80.78
77011;BME280;65945;53.148;17.956;2023-06-22T02:44:38;101393.98;;;17.20;80.72
77011;BME280;65945;53.148;17.956;2023-06-22T02:47:05;101395.16;;;17.21;80.68
77011;BME280;65945;53.148;17.956;2023-06-22T02:49:31;101398.02;;;17.22;80.48
77011;BME280;65945;53.148;17.956;2023-06-22T02:51:58;101395.48;;;17.26;80.33
77011;BME280;65945;53.148;17.956;2023-06-22T02:54:25;101397.96;;;17.36;79.81
77011;BME280;65945;53.148;17.956;2023-06-22T02:56:53;101397.89;;;17.49;79.41
77011;BME280;65945;53.148;17.956;2023-06-22T02:59:20;101392.46;;;17.60;78.90
77011;BME280;65945;53.148;17.956;2023-06-22T03:01:51;101401.25;;;17.70;78.76
77011;BME280;65945;53.148;17.956;2023-06-22T03:04:24;101408.84;;;17.75;78.29
77011;BME280;65945;53.148;17.956;2023-06-22T03:06:51;101403.08;;;17.80;78.24
77011;BME280;65945;53.148;17.956;2023-06-22T03:09:17;101406.73;;;17.85;78.11
77011;BME280;65945;53.148;17.956;2023-06-22T03:11:44;101410.54;;;17.92;77.83
77011;BME280;65945;53.148;17.956;2023-06-22T03:14:11;101413.90;;;18.00;77.59
77011;BME280;65945;53.148;17.956;2023-06-22T03:16:37;101416.64;;;18.09;77.33
77011;BME280;65945;53.148;17.956;2023-06-22T03:19:04;101421.62;;;18.17;77.22
77011;BME280;65945;53.148;17.956;2023-06-22T03:21:30;101420.70;;;18.24;76.92
77011;BME280;65945;53.148;17.956;2023-06-22T03:24:00;101424.67;;;18.32;76.72
77011;BME280;65945;53.148;17.956;2023-06-22T03:26:27;101422.45;;;18.39;76.63
77011;BME280;65945;53.148;17.956;2023-06-22T03:28:53;101422.42;;;18.46;76.46
77011;BME280;65945;53.148;17.956;2023-06-22T03:31:20;101422.48;;;18.48;76.27
77011;BME280;65945;53.148;17.956;2023-06-22T03:33:48;101426.83;;;18.51;76.12
77011;BME280;65945;53.148;17.956;2023-06-22T03:36:17;101431.41;;;18.55;75.95
77011;BME280;65945;53.148;17.956;2023-06-22T03:38:47;101424.67;;;18.59;75.51
77011;BME280;65945;53.148;17.956;2023-06-22T03:41:15;101430.64;;;18.59;75.70
77011;BME280;65945;53.148;17.956;2023-06-22T03:43:42;101431.11;;;18.63;75.50
77011;BME280;65945;53.148;17.956;2023-06-22T03:46:08;101443.73;;;18.60;75.56
77011;BME280;65945;53.148;17.956;2023-06-22T03:48:35;101447.89;;;18.54;75.05
77011;BME280;65945;53.148;17.956;2023-06-22T03:51:02;101449.75;;;18.48;75.24
77011;BME280;65945;53.148;17.956;2023-06-22T03:53:29;101450.35;;;18.44;75.30
77011;BME280;65945;53.148;17.956;2023-06-22T03:55:56;101453.73;;;18.38;75.07
77011;BME280;65945;53.148;17.956;2023-06-22T03:58:23;101448.51;;;18.34;75.49
77011;BME280;65945;53.148;17.956;2023-06-22T04:00:50;101448.27;;;18.32;75.35
77011;BME280;65945;53.148;17.956;2023-06-22T04:03:18;101447.02;;;18.29;75.17
77011;BME280;65945;53.148;17.956;2023-06-22T04:05:45;101450.02;;;18.25;75.22
77011;BME280;65945;53.148;17.956;2023-06-22T04:08:13;101451.11;;;18.23;75.39
77011;BME280;65945;53.148;17.956;2023-06-22T04:10:40;101451.82;;;18.24;75.45
77011;BME280;65945;53.148;17.956;2023-06-22T04:13:07;101454.14;;;18.26;75.49
77011;BME280;65945;53.148;17.956;2023-06-22T04:15:33;101452.05;;;18.26;75.51
77011;BME280;65945;53.148;17.956;2023-06-22T04:18:00;101451.27;;;18.27;75.54
77011;BME280;65945;53.148;17.956;2023-06-22T04:20:26;101458.88;;;18.28;75.57
77011;BME280;65945;53.148;17.956;2023-06-22T04:22:54;101462.52;;;18.30;75.48
77011;BME280;65945;53.148;17.956;2023-06-22T04:25:21;101462.29;;;18.32;75.51
77011;BME280;65945;53.148;17.956;2023-06-22T04:27:48;101462.22;;;18.35;75.45
77011;BME280;65945;53.148;17.956;2023-06-22T04:30:15;101458.44;;;18.39;75.45
77011;BME280;65945;53.148;17.956;2023-06-22T04:32:44;101452.05;;;18.43;75.51
77011;BME280;65945;53.148;17.956;2023-06-22T04:35:11;101450.29;;;18.49;75.34
77011;BME280;65945;53.148;17.956;2023-06-22T04:37:38;101450.77;;;18.53;75.31
77011;BME280;65945;53.148;17.956;2023-06-22T04:40:06;101451.39;;;18.57;75.07
77011;BME280;65945;53.148;17.956;2023-06-22T04:42:34;101453.56;;;18.63;74.78
77011;BME280;65945;53.148;17.956;2023-06-22T04:45:01;101456.13;;;18.69;74.89
77011;BME280;65945;53.148;17.956;2023-06-22T04:47:28;101463.41;;;18.74;74.67
77011;BME280;65945;53.148;17.956;2023-06-22T04:49:55;101464.65;;;18.79;74.37
77011;BME280;65945;53.148;17.956;2023-06-22T04:52:21;101466.13;;;18.81;74.20
77011;BME280;65945;53.148;17.956;2023-06-22T04:54:49;101464.73;;;18.83;74.01
77011;BME280;65945;53.148;17.956;2023-06-22T04:57:17;101464.20;;;18.85;73.94
77011;BME280;65945;53.148;17.956;2023-06-22T04:59:43;101461.57;;;18.87;73.90
77011;BME280;65945;53.148;17.956;2023-06-22T05:02:10;101464.59;;;18.92;74.13
77011;BME280;65945;53.148;17.956;2023-06-22T05:04:37;101465.91;;;18.98;73.72
77011;BME280;65945;53.148;17.956;2023-06-22T05:07:05;101466.99;;;19.02;73.61
77011;BME280;65945;53.148;17.956;2023-06-22T05:09:32;101472.34;;;19.05;73.35
77011;BME280;65945;53.148;17.956;2023-06-22T05:12:00;101475.14;;;19.10;73.49
77011;BME280;65945;53.148;17.956;2023-06-22T05:14:29;101479.70;;;19.16;73.26
77011;BME280;65945;53.148;17.956;2023-06-22T05:16:56;101477.61;;;19.19;72.82
77011;BME280;65945;53.148;17.956;2023-06-22T05:19:25;101473.58;;;19.23;72.67
77011;BME280;65945;53.148;17.956;2023-06-22T05:21:57;101485.36;;;19.27;72.31
77011;BME280;65945;53.148;17.956;2023-06-22T05:24:24;101485.30;;;19.29;72.09
77011;BME280;65945;53.148;17.956;2023-06-22T05:26:50;101489.50;;;19.33;72.44
77011;BME280;65945;53.148;17.956;2023-06-22T05:29:17;101489.40;;;19.43;72.63
77011;BME280;65945;53.148;17.956;2023-06-22T05:31:44;101495.05;;;19.52;71.80
77011;BME280;65945;53.148;17.956;2023-06-22T05:34:10;101499.45;;;19.58;71.56
77011;BME280;65945;53.148;17.956;2023-06-22T05:36:37;101496.44;;;19.61;71.49
77011;BME280;65945;53.148;17.956;2023-06-22T05:39:13;101497.90;;;19.65;71.32
77011;BME280;65945;53.148;17.956;2023-06-22T05:41:41;101498.04;;;19.71;71.38
77011;BME280;65945;53.148;17.956;2023-06-22T05:44:09;101494.16;;;19.77;71.04
77011;BME280;65945;53.148;17.956;2023-06-22T05:46:36;101491.80;;;19.84;70.55
77011;BME280;65945;53.148;17.956;2023-06-22T05:49:03;101487.21;;;19.90;70.57
77011;BME280;65945;53.148;17.956;2023-06-22T05:51:29;101485.16;;;19.99;70.40
77011;BME280;65945;53.148;17.956;2023-06-22T05:53:56;101488.31;;;20.06;70.15
77011;BME280;65945;53.148;17.956;2023-06-22T05:56:23;101484.56;;;20.14;70.05
77011;BME280;65945;53.148;17.956;2023-06-22T05:58:49;101493.39;;;20.25;69.69
77011;BME280;65945;53.148;17.956;2023-06-22T06:01:16;101487.23;;;20.29;69.22
77011;BME280;65945;53.148;17.956;2023-06-22T06:03:42;101487.90;;;20.36;69.27
77011;BME280;65945;53.148;17.956;2023-06-22T06:06:10;101482.06;;;20.41;68.65
77011;BME280;65945;53.148;17.956;2023-06-22T06:08:39;101486.38;;;20.45;68.71
77011;BME280;65945;53.148;17.956;2023-06-22T06:11:06;101489.45;;;20.51;68.04
77011;BME280;65945;53.148;17.956;2023-06-22T06:13:32;101483.84;;;20.55;67.58
77011;BME280;65945;53.148;17.956;2023-06-22T06:15:59;101479.46;;;20.58;66.91
77011;BME280;65945;53.148;17.956;2023-06-22T06:18:26;101472.76;;;20.64;67.25
77011;BME280;65945;53.148;17.956;2023-06-22T06:20:52;101478.91;;;20.71;66.24
77011;BME280;65945;53.148;17.956;2023-06-22T06:23:19;101485.01;;;20.79;66.30
77011;BME280;65945;53.148;17.956;2023-06-22T06:25:46;101497.63;;;20.85;64.80
77011;BME280;65945;53.148;17.956;2023-06-22T06:28:12;101498.08;;;20.87;64.84
77011;BME280;65945;53.148;17.956;2023-06-22T06:30:39;101499.77;;;20.90;64.53
77011;BME280;65945;53.148;17.956;2023-06-22T06:33:05;101505.66;;;20.93;64.38
77011;BME280;65945;53.148;17.956;2023-06-22T06:35:35;101500.03;;;20.97;64.78
77011;BME280;65945;53.148;17.956;2023-06-22T06:38:02;101499.25;;;21.02;63.50
77011;BME280;65945;53.148;17.956;2023-06-22T06:40:28;101502.95;;;21.05;63.18
77011;BME280;65945;53.148;17.956;2023-06-22T06:42:55;101499.83;;;21.08;63.31
77011;BME280;65945;53.148;17.956;2023-06-22T06:45:23;101499.84;;;21.15;64.07
77011;BME280;65945;53.148;17.956;2023-06-22T06:47:51;101498.59;;;21.25;63.03
77011;BME280;65945;53.148;17.956;2023-06-22T06:50:18;101492.69;;;21.32;63.15
77011;BME280;65945;53.148;17.956;2023-06-22T06:52:45;101493.77;;;21.41;63.10
77011;BME280;65945;53.148;17.956;2023-06-22T06:55:12;101485.48;;;21.47;62.70
77011;BME280;65945;53.148;17.956;2023-06-22T06:57:41;101483.64;;;21.52;61.94
77011;BME280;65945;53.148;17.956;2023-06-22T07:00:10;101489.83;;;21.55;61.86
77011;BME280;65945;53.148;17.956;2023-06-22T07:02:41;101500.34;;;21.61;62.41
77011;BME280;65945;53.148;17.956;2023-06-22T07:05:10;101493.06;;;21.65;62.14
77011;BME280;65945;53.148;17.956;2023-06-22T07:07:38;101488.89;;;21.71;62.43
77011;BME280;65945;53.148;17.956;2023-06-22T07:10:05;101493.41;;;21.78;61.91
77011;BME280;65945;53.148;17.956;2023-06-22T07:12:32;101491.46;;;21.87;60.92
77011;BME280;65945;53.148;17.956;2023-06-22T07:15:07;101492.74;;;21.91;60.67
77011;BME280;65945;53.148;17.956;2023-06-22T07:17:38;101504.52;;;21.97;60.40
77011;BME280;65945;53.148;17.956;2023-06-22T07:20:08;101505.95;;;22.00;58.49
77011;BME280;65945;53.148;17.956;2023-06-22T07:22:41;101501.92;;;21.98;58.60
77011;BME280;65945;53.148;17.956;2023-06-22T07:25:08;101503.39;;;21.99;59.05
77011;BME280;65945;53.148;17.956;2023-06-22T07:27:42;101505.83;;;22.05;58.78
77011;BME280;65945;53.148;17.956;2023-06-22T07:30:10;101504.21;;;22.09;59.25
77011;BME280;65945;53.148;17.956;2023-06-22T07:32:37;101515.46;;;22.12;57.69
77011;BME280;65945;53.148;17.956;2023-06-22T07:35:04;101514.39;;;22.11;58.17
77011;BME280;65945;53.148;17.956;2023-06-22T07:37:31;101511.41;;;22.13;57.96
77011;BME280;65945;53.148;17.956;2023-06-22T07:39:59;101520.11;;;22.20;58.43
77011;BME280;65945;53.148;17.956;2023-06-22T07:42:27;101514.57;;;22.27;58.11
77011;BME280;65945;53.148;17.956;2023-06-22T07:44:53;101520.20;;;22.31;56.70
77011;BME280;65945;53.148;17.956;2023-06-22T07:47:21;101523.84;;;22.34;57.84
77011;BME280;65945;53.148;17.956;2023-06-22T07:49:51;101514.44;;;22.37;56.65
77011;BME280;65945;53.148;17.956;2023-06-22T07:52:21;101521.39;;;22.42;55.89
77011;BME280;65945;53.148;17.956;2023-06-22T07:54:47;101517.14;;;22.46;56.24
77011;BME280;65945;53.148;17.956;2023-06-22T07:57:14;101510.06;;;22.50;56.05
77011;BME280;65945;53.148;17.956;2023-06-22T07:59:41;101511.08;;;22.58;56.16
77011;BME280;65945;53.148;17.956;2023-06-22T08:02:07;101511.69;;;22.70;56.34
77011;BME280;65945;53.148;17.956;2023-06-22T08:04:35;101518.71;;;22.85;55.63
77011;BME280;65945;53.148;17.956;2023-06-22T08:07:02;101521.48;;;22.94;55.39
77011;BME280;65945;53.148;17.956;2023-06-22T08:09:32;101522.84;;;23.00;55.14
77011;BME280;65945;53.148;17.956;2023-06-22T08:11:58;101525.48;;;23.06;53.56
77011;BME280;65945;53.148;17.956;2023-06-22T08:14:26;101522.35;;;23.11;53.93
77011;BME280;65945;53.148;17.956;2023-06-22T08:16:53;101535.52;;;23.17;52.79
77011;BME280;65945;53.148;17.956;2023-06-22T08:19:19;101540.29;;;23.21;53.28
77011;BME280;65945;53.148;17.956;2023-06-22T08:21:46;101543.39;;;23.28;54.22
77011;BME280;65945;53.148;17.956;2023-06-22T08:24:13;101539.95;;;23.38;52.87
77011;BME280;65945;53.148;17.956;2023-06-22T08:26:39;101532.20;;;23.45;52.57
77011;BME280;65945;53.148;17.956;2023-06-22T08:29:06;101528.16;;;23.49;53.47
77011;BME280;65945;53.148;17.956;2023-06-22T08:31:32;101529.23;;;23.54;54.11
77011;BME280;65945;53.148;17.956;2023-06-22T08:34:02;101531.55;;;23.64;53.89
77011;BME280;65945;53.148;17.956;2023-06-22T08:36:28;101526.55;;;23.68;54.46
77011;BME280;65945;53.148;17.956;2023-06-22T08:38:59;101525.73;;;23.83;53.43
77011;BME280;65945;53.148;17.956;2023-06-22T08:41:27;101524.91;;;23.93;53.81
77011;BME280;65945;53.148;17.956;2023-06-22T08:43:54;101528.34;;;24.03;52.79
77011;BME280;65945;53.148;17.956;2023-06-22T08:46:22;101516.98;;;23.99;50.53
77011;BME280;65945;53.148;17.956;2023-06-22T08:48:51;101514.82;;;23.98;51.09
77011;BME280;65945;53.148;17.956;2023-06-22T08:51:17;101514.67;;;24.07;50.36
77011;BME280;65945;53.148;17.956;2023-06-22T08:53:44;101518.77;;;24.13;50.09
77011;BME280;65945;53.148;17.956;2023-06-22T08:56:11;101522.06;;;24.16;48.90
77011;BME280;65945;53.148;17.956;2023-06-22T08:58:38;101523.27;;;24.18;48.55
77011;BME280;65945;53.148;17.956;2023-06-22T09:01:04;101524.42;;;24.15;47.82
77011;BME280;65945;53.148;17.956;2023-06-22T09:03:31;101525.00;;;24.17;48.08
77011;BME280;65945;53.148;17.956;2023-06-22T09:05:59;101517.35;;;24.21;48.67
77011;BME280;65945;53.148;17.956;2023-06-22T09:08:25;101523.72;;;24.26;48.30
77011;BME280;65945;53.148;17.956;2023-06-22T09:10:52;101519.99;;;24.32;48.85
77011;BME280;65945;53.148;17.956;2023-06-22T09:13:19;101516.41;;;24.43;49.25
77011;BME280;65945;53.148;17.956;2023-06-22T09:15:45;101516.12;;;24.53;47.67
77011;BME280;65945;53.148;17.956;2023-06-22T09:18:13;101511.48;;;24.57;47.29
77011;BME280;65945;53.148;17.956;2023-06-22T09:20:40;101505.04;;;24.56;45.12
77011;BME280;65945;53.148;17.956;2023-06-22T09:23:06;101503.71;;;24.48;45.22
77011;BME280;65945;53.148;17.956;2023-06-22T09:25:33;101492.89;;;24.54;46.62
77011;BME280;65945;53.148;17.956;2023-06-22T09:27:59;101492.28;;;24.63;45.99
77011;BME280;65945;53.148;17.956;2023-06-22T09:30:26;101491.72;;;24.67;45.32
77011;BME280;65945;53.148;17.956;2023-06-22T09:32:53;101489.84;;;24.67;46.00
77011;BME280;65945;53.148;17.956;2023-06-22T09:35:20;101493.77;;;24.70;45.87
77011;BME280;65945;53.148;17.956;2023-06-22T09:37:47;101490.97;;;24.70;45.46
77011;BME280;65945;53.148;17.956;2023-06-22T09:40:14;101496.39;;;24.75;45.44
77011;BME280;65945;53.148;17.956;2023-06-22T09:42:43;101489.30;;;24.85;46.01
77011;BME280;65945;53.148;17.956;2023-06-22T09:45:10;101495.06;;;24.98;44.51
77011;BME280;65945;53.148;17.956;2023-06-22T09:47:36;101493.85;;;25.07;42.43
77011;BME280;65945;53.148;17.956;2023-06-22T09:50:04;101488.42;;;25.08;43.52
77011;BME280;65945;53.148;17.956;2023-06-22T09:52:31;101486.95;;;25.17;43.21
77011;BME280;65945;53.148;17.956;2023-06-22T09:54:58;101485.02;;;25.28;43.55
77011;BME280;65945;53.148;17.956;2023-06-22T09:57:24;101490.39;;;25.34;42.38
77011;BME280;65945;53.148;17.956;2023-06-22T09:59:51;101489.84;;;25.39;42.34
77011;BME280;65945;53.148;17.956;2023-06-22T10:02:17;101491.72;;;25.36;41.88
77011;BME280;65945;53.148;17.956;2023-06-22T10:04:44;101493.71;;;25.31;42.05
77011;BME280;65945;53.148;17.956;2023-06-22T10:07:11;101493.90;;;25.29;42.45
77011;BME280;65945;53.148;17.956;2023-06-22T10:09:37;101492.14;;;25.28;42.37
77011;BME280;65945;53.148;17.956;2023-06-22T10:12:04;101491.02;;;25.29;42.49
77011;BME280;65945;53.148;17.956;2023-06-22T10:14:31;101480.81;;;25.33;42.39
77011;BME280;65945;53.148;17.956;2023-06-22T10:16:58;101480.75;;;25.36;42.95
77011;BME280;65945;53.148;17.956;2023-06-22T10:19:24;101479.68;;;25.41;43.31
77011;BME280;65945;53.148;17.956;2023-06-22T10:21:51;101483.65;;;25.45;42.95
77011;BME280;65945;53.148;17.956;2023-06-22T10:24:18;101475.21;;;25.48;43.12
77011;BME280;65945;53.148;17.956;2023-06-22T10:26:45;101472.60;;;25.55;43.41
77011;BME280;65945;53.148;17.956;2023-06-22T10:29:11;101469.52;;;25.63;43.26
77011;BME280;65945;53.148;17.956;2023-06-22T10:31:38;101465.43;;;25.76;43.14
77011;BME280;65945;53.148;17.956;2023-06-22T10:34:04;101469.73;;;25.82;42.11
77011;BME280;65945;53.148;17.956;2023-06-22T10:36:31;101475.29;;;25.79;42.22
77011;BME280;65945;53.148;17.956;2023-06-22T10:38:58;101468.43;;;25.89;43.32
77011;BME280;65945;53.148;17.956;2023-06-22T10:41:25;101472.09;;;26.07;42.06
77011;BME280;65945;53.148;17.956;2023-06-22T10:43:52;101468.56;;;26.20;42.26
77011;BME280;65945;53.148;17.956;2023-06-22T10:46:19;101473.55;;;26.36;41.93
77011;BME280;65945;53.148;17.956;2023-06-22T10:48:45;101474.75;;;26.39;39.86
77011;BME280;65945;53.148;17.956;2023-06-22T10:51:12;101467.59;;;26.29;40.52
77011;BME280;65945;53.148;17.956;2023-06-22T10:53:38;101461.77;;;26.30;41.34
77011;BME280;65945;53.148;17.956;2023-06-22T10:56:05;101465.14;;;26.34;41.08
77011;BME280;65945;53.148;17.956;2023-06-22T10:58:31;101459.79;;;26.38;40.33
77011;BME280;65945;53.148;17.956;2023-06-22T11:00:58;101461.28;;;26.43;40.69
77011;BME280;65945;53.148;17.956;2023-06-22T11:03:25;101463.33;;;26.53;39.78
77011;BME280;65945;53.148;17.956;2023-06-22T11:05:52;101463.45;;;26.61;39.83
77011;BME280;65945;53.148;17.956;2023-06-22T11:08:18;101465.28;;;26.58;38.74
77011;BME280;65945;53.148;17.956;2023-06-22T11:10:45;101462.71;;;26.55;39.59
77011;BME280;65945;53.148;17.956;2023-06-22T11:13:11;101462.41;;;26.54;40.73
77011;BME280;65945;53.148;17.956;2023-06-22T11:15:39;101462.91;;;26.66;40.77
77011;BME280;65945;53.148;17.956;2023-06-22T11:18:06;101459.08;;;26.73;40.50
77011;BME280;65945;53.148;17.956;2023-06-22T11:20:33;101457.19;;;26.76;40.93
77011;BME280;65945;53.148;17.956;2023-06-22T11:23:05;101458.98;;;26.86;41.04
77011;BME280;65945;53.148;17.956;2023-06-22T11:25:34;101454.34;;;26.98;38.50
77011;BME280;65945;53.148;17.956;2023-06-22T11:28:02;101468.44;;;26.96;37.77
77011;BME280;65945;53.148;17.956;2023-06-22T11:30:30;101469.70;;;26.85;37.68
77011;BME280;65945;53.148;17.956;2023-06-22T11:32:58;101468.23;;;26.81;38.42
77011;BME280;65945;53.148;17.956;2023-06-22T11:35:25;101463.33;;;26.83;38.27
77011;BME280;65945;53.148;17.956;2023-06-22T11:37:52;101461.26;;;26.83;38.38
77011;BME280;65945;53.148;17.956;2023-06-22T11:40:19;101458.33;;;26.89;37.89
77011;BME280;65945;53.148;17.956;2023-06-22T11:42:45;101455.34;;;26.92;38.24
77011;BME280;65945;53.148;17.956;2023-06-22T11:45:12;101457.27;;;26.92;38.78
77011;BME280;65945;53.148;17.956;2023-06-22T11:47:39;101461.75;;;26.97;38.47
77011;BME280;65945;53.148;17.956;2023-06-22T11:50:06;101452.79;;;26.97;38.88
77011;BME280;65945;53.148;17.956;2023-06-22T11:52:33;101452.02;;;27.02;38.96
77011;BME280;65945;53.148;17.956;2023-06-22T11:55:03;101450.84;;;27.14;39.48
77011;BME280;65945;53.148;17.956;2023-06-22T11:57:36;101452.85;;;27.26;37.45
77011;BME280;65945;53.148;17.956;2023-06-22T12:00:04;101447.23;;;27.30;37.65
77011;BME280;65945;53.148;17.956;2023-06-22T12:02:42;101443.73;;;27.36;37.14
77011;BME280;65945;53.148;17.956;2023-06-22T12:05:09;101441.18;;;27.37;36.90
77011;BME280;65945;53.148;17.956;2023-06-22T12:07:36;101438.88;;;27.42;37.05
77011;BME280;65945;53.148;17.956;2023-06-22T12:10:04;101436.66;;;27.45;36.02
77011;BME280;65945;53.148;17.956;2023-06-22T12:12:31;101437.45;;;27.47;36.69
77011;BME280;65945;53.148;17.956;2023-06-22T12:14:57;101429.17;;;27.50;36.89
77011;BME280;65945;53.148;17.956;2023-06-22T12:17:24;101427.74;;;27.61;37.17
77011;BME280;65945;53.148;17.956;2023-06-22T12:19:51;101424.77;;;27.69;36.86
77011;BME280;65945;53.148;17.956;2023-06-22T12:22:17;101418.41;;;27.73;36.22
77011;BME280;65945;53.148;17.956;2023-06-22T12:24:44;101419.04;;;27.76;37.24
77011;BME280;65945;53.148;17.956;2023-06-22T12:27:10;101410.11;;;27.87;36.92
77011;BME280;65945;53.148;17.956;2023-06-22T12:29:37;101411.34;;;27.93;36.47
77011;BME280;65945;53.148;17.956;2023-06-22T12:32:04;101412.41;;;28.00;36.16
77011;BME280;65945;53.148;17.956;2023-06-22T12:34:30;101411.06;;;28.04;36.37
77011;BME280;65945;53.148;17.956;2023-06-22T12:36:57;101407.46;;;28.06;36.13
77011;BME280;65945;53.148;17.956;2023-06-22T12:39:24;101403.20;;;28.04;35.73
77011;BME280;65945;53.148;17.956;2023-06-22T12:41:50;101402.95;;;27.96;35.11
77011;BME280;65945;53.148;17.956;2023-06-22T12:44:17;101397.54;;;27.94;36.46
77011;BME280;65945;53.148;17.956;2023-06-22T12:46:43;101394.29;;;28.09;36.71